PWSweather.com
Personal Weather Stations
Station Observations
KCTCOLEB1
Sandy Brook, Colebrook, CT 06021

Sandy BrookColebrook, CT 06021

Lat: 42.0018, Lon: -73.0825

Elevation: 935

Station Type: Davis Vantage Pro2 + Solar + UV

Latest ConditionsUpdated 11:30:05 PM EDT Tuesday, Mar 26, 2019
Currently Today's Max Today's Min Today's Average
Temperature 25.1°F-3.8°C 45.3°F7.4°C 20.4°F-6.4°C 31.9°F-0.1°C
Dew Point 16.4°F-8.7°C 18.2°F-7.7°C 4.7°F-15.2°C 11.3°F-11.5°C
Winds Calm Calm 3.5 mph -5.6 kmh - - 1.0 mph 1.6 kmh
Wind Gusts -- 8.1 mph13.0 kmh - -
Humidity 69% 75% 20% 45%
Pressure 30.38 in1028.8 mb 30.38 in1028.8 mb 30.11 in1019.6 mb -
Hour Temp Dew Point Humidity Winds Wind Gusts Pressure Precip Precip Rate Daily Precip Total
11:30 PM 25.1°F-3.8°C 16.4°F-8.7°C 69% Calm Calm -- 30.38 in1028.8 mb - 0.00 in0.0 mm 0.00 in0.0 mm
11:20 PM 25.2°F-3.8°C 16.1°F-8.8°C 68% Calm Calm -- 30.38 in1028.8 mb - 0.00 in0.0 mm 0.00 in0.0 mm
11:10 PM 25.5°F-3.6°C 16.4°F-8.7°C 68% Calm Calm -- 30.37 in1028.4 mb - 0.00 in0.0 mm 0.00 in0.0 mm
11:00 PM 25.8°F-3.4°C 16.7°F-8.5°C 68% Calm Calm -- 30.37 in1028.4 mb - 0.00 in0.0 mm 0.00 in0.0 mm
10:50 PM 26.1°F-3.3°C 16.3°F-8.7°C 66% Calm Calm -- 30.37 in1028.4 mb - 0.00 in0.0 mm 0.00 in0.0 mm
10:40 PM 26.3°F-3.2°C 16.5°F-8.6°C 66% Calm Calm -- 30.36 in1028.1 mb - 0.00 in0.0 mm 0.00 in0.0 mm
10:30 PM 26.5°F-3.1°C 16.7°F-8.5°C 66% Calm Calm -- 30.36 in1028.1 mb - 0.00 in0.0 mm 0.00 in0.0 mm
10:20 PM 26.7°F-2.9°C 16.5°F-8.6°C 65% Calm Calm -- 30.36 in1028.1 mb - 0.00 in0.0 mm 0.00 in0.0 mm
10:10 PM 27.0°F-2.8°C 16.4°F-8.7°C 64% Calm Calm -- 30.35 in1027.8 mb - 0.00 in0.0 mm 0.00 in0.0 mm
10:00 PM 27.3°F-2.6°C 16.4°F-8.7°C 63% Calm Calm -- 30.35 in1027.8 mb - 0.00 in0.0 mm 0.00 in0.0 mm
09:50 PM 27.6°F-2.4°C 15.9°F-8.9°C 61% Calm Calm -- 30.35 in1027.8 mb - 0.00 in0.0 mm 0.00 in0.0 mm
09:40 PM 27.8°F-2.3°C 15.7°F-9.1°C 60% Calm Calm -- 30.35 in1027.8 mb - 0.00 in0.0 mm 0.00 in0.0 mm
09:30 PM 28.0°F-2.2°C 15.9°F-8.9°C 60% Calm Calm -- 30.34 in1027.4 mb - 0.00 in0.0 mm 0.00 in0.0 mm
09:20 PM 28.3°F-2.1°C 15.8°F-9.0°C 59% Calm Calm -- 30.34 in1027.4 mb - 0.00 in0.0 mm 0.00 in0.0 mm
09:10 PM 28.6°F-1.9°C 15.3°F-9.3°C 57% Calm Calm -- 30.34 in1027.4 mb - 0.00 in0.0 mm 0.00 in0.0 mm
09:00 PM 29.0°F-1.7°C 14.8°F-9.6°C 55% Calm Calm -- 30.33 in1027.1 mb - 0.00 in0.0 mm 0.00 in0.0 mm
08:50 PM 29.4°F-1.4°C 14.3°F-9.8°C 53% Calm Calm -- 30.33 in1027.1 mb - 0.00 in0.0 mm 0.00 in0.0 mm
08:40 PM 29.9°F-1.2°C 14.4°F-9.8°C 52% Calm Calm -- 30.33 in1027.1 mb - 0.00 in0.0 mm 0.00 in0.0 mm
08:30 PM 30.3°F-0.9°C 14.4°F-9.8°C 51% Calm Calm -- 30.32 in1026.8 mb - 0.00 in0.0 mm 0.00 in0.0 mm
08:20 PM 30.9°F-0.6°C 14.8°F-9.6°C 51% Calm Calm -- 30.32 in1026.8 mb - 0.00 in0.0 mm 0.00 in0.0 mm
08:10 PM 31.7°F-0.2°C 15.6°F-9.1°C 51% Calm Calm -- 30.31 in1026.4 mb - 0.00 in0.0 mm 0.00 in0.0 mm
08:00 PM 32.4°F0.2°C 15.3°F-9.3°C 49% Calm Calm 1.2 mph1.9 kmh 30.31 in1026.4 mb - 0.00 in0.0 mm 0.00 in0.0 mm
07:51 PM 33.0°F0.6°C 14.9°F-9.5°C 47% Calm Calm 1.2 mph1.9 kmh 30.30 in1026.1 mb - 0.00 in0.0 mm 0.00 in0.0 mm
07:31 PM 34.4°F1.3°C 16.7°F-8.5°C 48% Calm Calm -- 30.29 in1025.7 mb - 0.00 in0.0 mm 0.00 in0.0 mm
07:20 PM 34.9°F1.6°C 18.1°F-7.7°C 50% Calm Calm -- 30.29 in1025.7 mb - 0.00 in0.0 mm 0.00 in0.0 mm
07:10 PM 35.5°F1.9°C 17.7°F-7.9°C 48% Calm Calm 1.2 mph1.9 kmh 30.29 in1025.7 mb - 0.00 in0.0 mm 0.00 in0.0 mm
07:00 PM 36.0°F2.2°C 18.2°F-7.7°C 48% Calm Calm -- 30.28 in1025.4 mb - 0.00 in0.0 mm 0.00 in0.0 mm
06:50 PM 36.4°F2.4°C 16.5°F-8.6°C 44% Calm Calm 1.2 mph1.9 kmh 30.27 in1025.1 mb - 0.00 in0.0 mm 0.00 in0.0 mm
06:40 PM 37.0°F2.8°C 16.0°F-8.9°C 42% Calm Calm 1.2 mph1.9 kmh 30.27 in1025.1 mb - 0.00 in0.0 mm 0.00 in0.0 mm
06:30 PM 37.3°F2.9°C 12.1°F-11.1°C 35% 1.2 mph N1.9 kmh N 2.3 mph3.7 kmh 30.27 in1025.1 mb - 0.00 in0.0 mm 0.00 in0.0 mm
06:20 PM 37.6°F3.1°C 10.3°F-12.1°C 32% 1.2 mph NW1.9 kmh NW 1.2 mph1.9 kmh 30.27 in1025.1 mb - 0.00 in0.0 mm 0.00 in0.0 mm
06:10 PM 38.0°F3.3°C 14.0°F-10.0°C 37% 1.2 mph N1.9 kmh N 1.2 mph1.9 kmh 30.26 in1024.7 mb - 0.00 in0.0 mm 0.00 in0.0 mm
06:00 PM 38.5°F3.6°C 12.6°F-10.8°C 34% 2.3 mph WNW3.7 kmh WNW 2.3 mph3.7 kmh 30.26 in1024.7 mb - 0.00 in0.0 mm 0.00 in0.0 mm
05:50 PM 38.9°F3.8°C 8.5°F-13.1°C 28% 2.3 mph NE3.7 kmh NE 3.5 mph5.6 kmh 30.26 in1024.7 mb - 0.00 in0.0 mm 0.00 in0.0 mm
05:40 PM 39.1°F3.9°C 8.7°F-12.9°C 28% 2.3 mph NE3.7 kmh NE 3.5 mph5.6 kmh 30.25 in1024.4 mb - 0.00 in0.0 mm 0.00 in0.0 mm
05:30 PM 39.4°F4.1°C 8.1°F-13.3°C 27% 2.3 mph N3.7 kmh N 3.5 mph5.6 kmh 30.26 in1024.7 mb - 0.00 in0.0 mm 0.00 in0.0 mm
05:20 PM 39.5°F4.2°C 9.0°F-12.8°C 28% 2.3 mph NW3.7 kmh NW 3.5 mph5.6 kmh 30.25 in1024.4 mb - 0.00 in0.0 mm 0.00 in0.0 mm
05:10 PM 39.7°F4.3°C 12.9°F-10.6°C 33% 3.5 mph N5.6 kmh N 8.1 mph13.0 kmh 30.25 in1024.4 mb - 0.00 in0.0 mm 0.00 in0.0 mm
05:00 PM 39.8°F4.3°C 10.8°F-11.8°C 30% 1.2 mph N1.9 kmh N 3.5 mph5.6 kmh 30.25 in1024.4 mb - 0.00 in0.0 mm 0.00 in0.0 mm
04:50 PM 39.7°F4.3°C 9.2°F-12.7°C 28% 2.3 mph NW3.7 kmh NW 3.5 mph5.6 kmh 30.25 in1024.4 mb - 0.00 in0.0 mm 0.00 in0.0 mm
04:40 PM 39.8°F4.3°C 9.3°F-12.6°C 28% 2.3 mph N3.7 kmh N 3.5 mph5.6 kmh 30.25 in1024.4 mb - 0.00 in0.0 mm 0.00 in0.0 mm
04:30 PM 40.2°F4.6°C 9.6°F-12.4°C 28% 3.5 mph NW5.6 kmh NW 5.8 mph9.3 kmh 30.24 in1024.0 mb - 0.00 in0.0 mm 0.00 in0.0 mm
04:20 PM 40.5°F4.7°C 8.2°F-13.2°C 26% 3.5 mph 5.6 kmh 5.8 mph9.3 kmh 30.24 in1024.0 mb - 0.00 in0.0 mm 0.00 in0.0 mm
04:10 PM 41.5°F5.3°C 10.0°F-12.2°C 27% 2.3 mph WNW3.7 kmh WNW 3.5 mph5.6 kmh 30.25 in1024.4 mb - 0.00 in0.0 mm 0.00 in0.0 mm
04:00 PM 42.3°F5.7°C 11.4°F-11.4°C 28% 1.2 mph N1.9 kmh N 8.1 mph13.0 kmh 30.24 in1024.0 mb - 0.00 in0.0 mm 0.00 in0.0 mm
03:50 PM 42.4°F5.8°C 9.0°F-12.8°C 25% 2.3 mph NW3.7 kmh NW 3.5 mph5.6 kmh 30.24 in1024.0 mb - 0.00 in0.0 mm 0.00 in0.0 mm
03:40 PM 42.7°F5.9°C 13.4°F-10.3°C 30% 2.3 mph N3.7 kmh N 4.6 mph7.4 kmh 30.23 in1023.7 mb - 0.00 in0.0 mm 0.00 in0.0 mm
03:30 PM 43.1°F6.2°C 6.8°F-14.0°C 22% 2.3 mph NNW3.7 kmh NNW 3.5 mph5.6 kmh 30.24 in1024.0 mb - 0.00 in0.0 mm 0.00 in0.0 mm
03:20 PM 43.4°F6.3°C 8.9°F-12.8°C 24% 1.2 mph N1.9 kmh N 5.8 mph9.3 kmh 30.24 in1024.0 mb - 0.00 in0.0 mm 0.00 in0.0 mm
03:10 PM 43.6°F6.4°C 7.2°F-13.8°C 22% 3.5 mph NNW5.6 kmh NNW 8.1 mph13.0 kmh 30.24 in1024.0 mb - 0.00 in0.0 mm 0.00 in0.0 mm
03:00 PM 43.9°F6.6°C 9.4°F-12.6°C 24% 3.5 mph NE5.6 kmh NE 3.5 mph5.6 kmh 30.24 in1024.0 mb - 0.00 in0.0 mm 0.00 in0.0 mm
02:50 PM 44.1°F6.7°C 7.6°F-13.6°C 22% 2.3 mph NE3.7 kmh NE 3.5 mph5.6 kmh 30.24 in1024.0 mb - 0.00 in0.0 mm 0.00 in0.0 mm
02:40 PM 45.3°F7.4°C 8.6°F-13.0°C 22% 2.3 mph N3.7 kmh N 6.9 mph11.1 kmh 30.24 in1024.0 mb - 0.00 in0.0 mm 0.00 in0.0 mm
02:30 PM 44.6°F7.0°C 7.0°F-13.9°C 21% 2.3 mph NE3.7 kmh NE 3.5 mph5.6 kmh 30.25 in1024.4 mb - 0.00 in0.0 mm 0.00 in0.0 mm
02:20 PM 44.5°F6.9°C 7.9°F-13.4°C 22% 2.3 mph NE3.7 kmh NE 3.5 mph5.6 kmh 30.25 in1024.4 mb - 0.00 in0.0 mm 0.00 in0.0 mm
02:10 PM 44.5°F6.9°C 6.9°F-13.9°C 21% 1.2 mph NW1.9 kmh NW 3.5 mph5.6 kmh 30.25 in1024.4 mb - 0.00 in0.0 mm 0.00 in0.0 mm
02:00 PM 44.4°F6.9°C 8.9°F-12.8°C 23% 2.3 mph NNW3.7 kmh NNW 4.6 mph7.4 kmh 30.25 in1024.4 mb - 0.00 in0.0 mm 0.00 in0.0 mm
01:50 PM 44.1°F6.7°C 5.5°F-14.7°C 20% 2.3 mph NNW3.7 kmh NNW 3.5 mph5.6 kmh 30.26 in1024.7 mb - 0.00 in0.0 mm 0.00 in0.0 mm
01:40 PM 44.5°F6.9°C 6.9°F-13.9°C 21% 2.3 mph NNE3.7 kmh NNE 6.9 mph11.1 kmh 30.26 in1024.7 mb - 0.00 in0.0 mm 0.00 in0.0 mm
01:30 PM 43.5°F6.4°C 5.0°F-15.0°C 20% 2.3 mph ENE3.7 kmh ENE 3.5 mph5.6 kmh 30.26 in1024.7 mb - 0.00 in0.0 mm 0.00 in0.0 mm
01:20 PM 43.4°F6.3°C 6.0°F-14.4°C 21% 2.3 mph NNW3.7 kmh NNW 4.6 mph7.4 kmh 30.27 in1025.1 mb - 0.00 in0.0 mm 0.00 in0.0 mm
01:10 PM 43.2°F6.2°C 4.7°F-15.2°C 20% 2.3 mph N3.7 kmh N 3.5 mph5.6 kmh 30.27 in1025.1 mb - 0.00 in0.0 mm 0.00 in0.0 mm
01:00 PM 43.3°F6.3°C 6.9°F-13.9°C 22% 2.3 mph NW3.7 kmh NW 2.3 mph3.7 kmh 30.27 in1025.1 mb - 0.00 in0.0 mm 0.00 in0.0 mm
12:50 PM 42.6°F5.9°C 7.3°F-13.7°C 23% 2.3 mph NNE3.7 kmh NNE 4.6 mph7.4 kmh 30.27 in1025.1 mb - 0.00 in0.0 mm 0.00 in0.0 mm
12:40 PM 42.3°F5.7°C 7.0°F-13.9°C 23% 1.2 mph N1.9 kmh N 2.3 mph3.7 kmh 30.26 in1024.7 mb - 0.00 in0.0 mm 0.00 in0.0 mm
12:30 PM 42.1°F5.6°C 7.8°F-13.4°C 24% 2.3 mph NE3.7 kmh NE 3.5 mph5.6 kmh 30.27 in1025.1 mb - 0.00 in0.0 mm 0.00 in0.0 mm
12:20 PM 41.2°F5.1°C 8.0°F-13.3°C 25% 1.2 mph NNW1.9 kmh NNW 3.5 mph5.6 kmh 30.27 in1025.1 mb - 0.00 in0.0 mm 0.00 in0.0 mm
12:10 PM 40.7°F4.8°C 8.4°F-13.1°C 26% 2.3 mph NNW3.7 kmh NNW 3.5 mph5.6 kmh 30.27 in1025.1 mb - 0.00 in0.0 mm 0.00 in0.0 mm
12:00 PM 41.3°F5.2°C 8.9°F-12.8°C 26% 3.5 mph N5.6 kmh N 3.5 mph5.6 kmh 30.27 in1025.1 mb - 0.00 in0.0 mm 0.00 in0.0 mm
11:50 AM 40.5°F4.7°C 8.3°F-13.2°C 26% 2.3 mph NNW3.7 kmh NNW 3.5 mph5.6 kmh 30.27 in1025.1 mb - 0.00 in0.0 mm 0.00 in0.0 mm
11:40 AM 39.7°F4.3°C 7.6°F-13.6°C 26% 2.3 mph NW3.7 kmh NW 3.5 mph5.6 kmh 30.27 in1025.1 mb - 0.00 in0.0 mm 0.00 in0.0 mm
11:30 AM 39.4°F4.1°C 6.5°F-14.2°C 25% 3.5 mph NW5.6 kmh NW 3.5 mph5.6 kmh 30.27 in1025.1 mb - 0.00 in0.0 mm 0.00 in0.0 mm
11:20 AM 39.6°F4.2°C 6.6°F-14.1°C 25% 2.3 mph N3.7 kmh N 3.5 mph5.6 kmh 30.27 in1025.1 mb - 0.00 in0.0 mm 0.00 in0.0 mm
11:10 AM 39.0°F3.9°C 7.0°F-13.9°C 26% 2.3 mph N3.7 kmh N 3.5 mph5.6 kmh 30.27 in1025.1 mb - 0.00 in0.0 mm 0.00 in0.0 mm
11:00 AM 38.9°F3.8°C 8.5°F-13.1°C 28% 2.3 mph WNW3.7 kmh WNW 3.5 mph5.6 kmh 30.27 in1025.1 mb - 0.00 in0.0 mm 0.00 in0.0 mm
10:50 AM 38.3°F3.5°C 8.8°F-12.9°C 29% 2.3 mph NNW3.7 kmh NNW 3.5 mph5.6 kmh 30.26 in1024.7 mb - 0.00 in0.0 mm 0.00 in0.0 mm
10:40 AM 36.7°F2.6°C 8.1°F-13.3°C 30% 2.3 mph N3.7 kmh N 3.5 mph5.6 kmh 30.26 in1024.7 mb - 0.00 in0.0 mm 0.00 in0.0 mm
10:30 AM 36.2°F2.3°C 6.9°F-13.9°C 29% 2.3 mph S3.7 kmh S 4.6 mph7.4 kmh 30.26 in1024.7 mb - 0.00 in0.0 mm 0.00 in0.0 mm
10:20 AM 35.4°F1.9°C 6.2°F-14.3°C 29% 1.2 mph NNW1.9 kmh NNW 3.5 mph5.6 kmh 30.26 in1024.7 mb - 0.00 in0.0 mm 0.00 in0.0 mm
10:10 AM 34.7°F1.5°C 5.6°F-14.7°C 29% 1.2 mph E1.9 kmh E 2.3 mph3.7 kmh 30.26 in1024.7 mb - 0.00 in0.0 mm 0.00 in0.0 mm
10:00 AM 33.8°F1.0°C 8.3°F-13.2°C 34% 1.2 mph WNW1.9 kmh WNW 3.5 mph5.6 kmh 30.26 in1024.7 mb - 0.00 in0.0 mm 0.00 in0.0 mm
09:50 AM 32.6°F0.3°C 8.6°F-13.0°C 36% 2.3 mph N3.7 kmh N 3.5 mph5.6 kmh 30.26 in1024.7 mb - 0.00 in0.0 mm 0.00 in0.0 mm
09:40 AM 31.9°F-0.1°C 9.1°F-12.7°C 38% 3.5 mph NW5.6 kmh NW 3.5 mph5.6 kmh 30.26 in1024.7 mb - 0.00 in0.0 mm 0.00 in0.0 mm
09:30 AM 31.1°F-0.5°C 8.4°F-13.1°C 38% 2.3 mph SSW3.7 kmh SSW 2.3 mph3.7 kmh 30.25 in1024.4 mb - 0.00 in0.0 mm 0.00 in0.0 mm
09:20 AM 30.0°F-1.1°C 9.7°F-12.4°C 42% 2.3 mph NNW3.7 kmh NNW 3.5 mph5.6 kmh 30.25 in1024.4 mb - 0.00 in0.0 mm 0.00 in0.0 mm
09:10 AM 28.8°F-1.8°C 11.0°F-11.7°C 47% 1.2 mph NNE1.9 kmh NNE 2.3 mph3.7 kmh 30.25 in1024.4 mb - 0.00 in0.0 mm 0.00 in0.0 mm
09:00 AM 27.1°F-2.7°C 10.9°F-11.7°C 50% Calm Calm 1.2 mph1.9 kmh 30.24 in1024.0 mb - 0.00 in0.0 mm 0.00 in0.0 mm
08:50 AM 25.7°F-3.5°C 12.6°F-10.8°C 57% Calm Calm 1.2 mph1.9 kmh 30.24 in1024.0 mb - 0.00 in0.0 mm 0.00 in0.0 mm
08:40 AM 24.0°F-4.4°C 11.7°F-11.3°C 59% Calm Calm 2.3 mph3.7 kmh 30.24 in1024.0 mb - 0.00 in0.0 mm 0.00 in0.0 mm
08:30 AM 22.5°F-5.3°C 11.7°F-11.3°C 63% 1.2 mph NE1.9 kmh NE 2.3 mph3.7 kmh 30.24 in1024.0 mb - 0.00 in0.0 mm 0.00 in0.0 mm
08:20 AM 21.3°F-5.9°C 12.7°F-10.7°C 69% Calm Calm -- 30.24 in1024.0 mb - 0.00 in0.0 mm 0.00 in0.0 mm
08:10 AM 20.9°F-6.2°C 13.6°F-10.2°C 73% Calm Calm -- 30.23 in1023.7 mb - 0.00 in0.0 mm 0.00 in0.0 mm
08:00 AM 20.7°F-6.3°C 14.0°F-10.0°C 75% Calm Calm -- 30.23 in1023.7 mb - 0.00 in0.0 mm 0.00 in0.0 mm
07:50 AM 20.6°F-6.3°C 13.6°F-10.2°C 74% Calm Calm -- 30.23 in1023.7 mb - 0.00 in0.0 mm 0.00 in0.0 mm
07:40 AM 20.4°F-6.4°C 13.1°F-10.5°C 73% Calm Calm -- 30.22 in1023.4 mb - 0.00 in0.0 mm 0.00 in0.0 mm
07:30 AM 20.4°F-6.4°C 12.5°F-10.8°C 71% Calm Calm -- 30.22 in1023.4 mb - 0.00 in0.0 mm 0.00 in0.0 mm
07:20 AM 20.5°F-6.4°C 12.9°F-10.6°C 72% Calm Calm -- 30.21 in1023.0 mb - 0.00 in0.0 mm 0.00 in0.0 mm
07:10 AM 20.5°F-6.4°C 12.3°F-10.9°C 70% Calm Calm -- 30.21 in1023.0 mb - 0.00 in0.0 mm 0.00 in0.0 mm
07:00 AM 20.6°F-6.3°C 12.4°F-10.9°C 70% Calm Calm -- 30.20 in1022.7 mb - 0.00 in0.0 mm 0.00 in0.0 mm
06:50 AM 20.8°F-6.2°C 12.2°F-11.0°C 69% Calm Calm -- 30.20 in1022.7 mb - 0.00 in0.0 mm 0.00 in0.0 mm
06:40 AM 21.2°F-6.0°C 12.3°F-10.9°C 68% Calm Calm -- 30.20 in1022.7 mb - 0.00 in0.0 mm 0.00 in0.0 mm
06:30 AM 21.5°F-5.8°C 12.6°F-10.8°C 68% Calm Calm -- 30.20 in1022.7 mb - 0.00 in0.0 mm 0.00 in0.0 mm
06:20 AM 21.9°F-5.6°C 12.3°F-10.9°C 66% Calm Calm -- 30.19 in1022.4 mb - 0.00 in0.0 mm 0.00 in0.0 mm
06:10 AM 22.2°F-5.4°C 12.2°F-11.0°C 65% Calm Calm -- 30.19 in1022.4 mb - 0.00 in0.0 mm 0.00 in0.0 mm
06:00 AM 22.5°F-5.3°C 11.7°F-11.3°C 63% Calm Calm -- 30.18 in1022.0 mb - 0.00 in0.0 mm 0.00 in0.0 mm
05:50 AM 22.8°F-5.1°C 11.4°F-11.4°C 61% Calm Calm -- 30.18 in1022.0 mb - 0.00 in0.0 mm 0.00 in0.0 mm
05:40 AM 23.1°F-4.9°C 10.9°F-11.7°C 59% Calm Calm -- 30.18 in1022.0 mb - 0.00 in0.0 mm 0.00 in0.0 mm
05:30 AM 23.4°F-4.8°C 10.4°F-12.0°C 57% Calm Calm -- 30.18 in1022.0 mb - 0.00 in0.0 mm 0.00 in0.0 mm
05:20 AM 23.7°F-4.6°C 10.3°F-12.1°C 56% Calm Calm -- 30.18 in1022.0 mb - 0.00 in0.0 mm 0.00 in0.0 mm
05:10 AM 24.0°F-4.4°C 9.7°F-12.4°C 54% Calm Calm -- 30.17 in1021.7 mb - 0.00 in0.0 mm 0.00 in0.0 mm
05:00 AM 24.4°F-4.2°C 10.5°F-11.9°C 55% Calm Calm -- 30.17 in1021.7 mb - 0.00 in0.0 mm 0.00 in0.0 mm
04:50 AM 24.7°F-4.1°C 9.5°F-12.5°C 52% Calm Calm -- 30.17 in1021.7 mb - 0.00 in0.0 mm 0.00 in0.0 mm
04:40 AM 25.1°F-3.8°C 9.5°F-12.5°C 51% Calm Calm -- 30.17 in1021.7 mb - 0.00 in0.0 mm 0.00 in0.0 mm
04:30 AM 25.6°F-3.6°C 9.5°F-12.5°C 50% Calm Calm -- 30.16 in1021.3 mb - 0.00 in0.0 mm 0.00 in0.0 mm
04:20 AM 26.0°F-3.3°C 9.4°F-12.6°C 49% Calm Calm -- 30.16 in1021.3 mb - 0.00 in0.0 mm 0.00 in0.0 mm
04:10 AM 26.2°F-3.2°C 10.9°F-11.7°C 52% Calm Calm -- 30.16 in1021.3 mb - 0.00 in0.0 mm 0.00 in0.0 mm
04:00 AM 26.5°F-3.1°C 10.3°F-12.1°C 50% Calm Calm -- 30.15 in1021.0 mb - 0.00 in0.0 mm 0.00 in0.0 mm
03:50 AM 26.7°F-2.9°C 9.1°F-12.7°C 47% Calm Calm -- 30.15 in1021.0 mb - 0.00 in0.0 mm 0.00 in0.0 mm
03:40 AM 27.0°F-2.8°C 9.9°F-12.3°C 48% Calm Calm 1.2 mph1.9 kmh 30.15 in1021.0 mb - 0.00 in0.0 mm 0.00 in0.0 mm
03:30 AM 27.3°F-2.6°C 9.7°F-12.4°C 47% Calm Calm 1.2 mph1.9 kmh 30.15 in1021.0 mb - 0.00 in0.0 mm 0.00 in0.0 mm
03:20 AM 27.5°F-2.5°C 9.9°F-12.3°C 47% Calm Calm 1.2 mph1.9 kmh 30.15 in1021.0 mb - 0.00 in0.0 mm 0.00 in0.0 mm
03:10 AM 27.8°F-2.3°C 9.7°F-12.4°C 46% 1.2 mph NNW1.9 kmh NNW 1.2 mph1.9 kmh 30.14 in1020.7 mb - 0.00 in0.0 mm 0.00 in0.0 mm
03:00 AM 27.9°F-2.3°C 10.2°F-12.1°C 47% 1.2 mph NNW1.9 kmh NNW 2.3 mph3.7 kmh 30.14 in1020.7 mb - 0.00 in0.0 mm 0.00 in0.0 mm
02:50 AM 28.0°F-2.2°C 9.4°F-12.6°C 45% 1.2 mph N1.9 kmh N 3.5 mph5.6 kmh 30.14 in1020.7 mb - 0.00 in0.0 mm 0.00 in0.0 mm
02:40 AM 28.2°F-2.1°C 9.0°F-12.8°C 44% 2.3 mph N3.7 kmh N 3.5 mph5.6 kmh 30.14 in1020.7 mb - 0.00 in0.0 mm 0.00 in0.0 mm
02:30 AM 28.2°F-2.1°C 8.5°F-13.1°C 43% 1.2 mph NW1.9 kmh NW 3.5 mph5.6 kmh 30.14 in1020.7 mb - 0.00 in0.0 mm 0.00 in0.0 mm
02:20 AM 28.2°F-2.1°C 8.5°F-13.1°C 43% 1.2 mph NNW1.9 kmh NNW 3.5 mph5.6 kmh 30.14 in1020.7 mb - 0.00 in0.0 mm 0.00 in0.0 mm
02:10 AM 28.1°F-2.2°C 8.4°F-13.1°C 43% 1.2 mph NW1.9 kmh NW 3.5 mph5.6 kmh 30.14 in1020.7 mb - 0.00 in0.0 mm 0.00 in0.0 mm
02:00 AM 27.7°F-2.4°C 8.6°F-13.0°C 44% 2.3 mph SW3.7 kmh SW 3.5 mph5.6 kmh 30.14 in1020.7 mb - 0.00 in0.0 mm 0.00 in0.0 mm
01:50 AM 27.2°F-2.7°C 10.1°F-12.2°C 48% 1.2 mph N1.9 kmh N 2.3 mph3.7 kmh 30.14 in1020.7 mb - 0.00 in0.0 mm 0.00 in0.0 mm
01:40 AM 26.5°F-3.1°C 11.2°F-11.6°C 52% Calm Calm 2.3 mph3.7 kmh 30.14 in1020.7 mb - 0.00 in0.0 mm 0.00 in0.0 mm
01:30 AM 25.9°F-3.4°C 13.9°F-10.1°C 60% 1.2 mph N1.9 kmh N 2.3 mph3.7 kmh 30.13 in1020.3 mb - 0.00 in0.0 mm 0.00 in0.0 mm
01:20 AM 25.6°F-3.6°C 14.4°F-9.8°C 62% Calm Calm 1.2 mph1.9 kmh 30.13 in1020.3 mb - 0.00 in0.0 mm 0.00 in0.0 mm
01:10 AM 25.6°F-3.6°C 13.3°F-10.4°C 59% Calm Calm -- 30.13 in1020.3 mb - 0.00 in0.0 mm 0.00 in0.0 mm
01:00 AM 25.8°F-3.4°C 14.9°F-9.5°C 63% Calm Calm -- 30.13 in1020.3 mb - 0.00 in0.0 mm 0.00 in0.0 mm
12:50 AM 25.9°F-3.4°C 15.4°F-9.2°C 64% Calm Calm -- 30.13 in1020.3 mb - 0.00 in0.0 mm 0.00 in0.0 mm
12:40 AM 26.0°F-3.3°C 15.1°F-9.4°C 63% Calm Calm -- 30.13 in1020.3 mb - 0.00 in0.0 mm 0.00 in0.0 mm
12:30 AM 26.0°F-3.3°C 16.2°F-8.8°C 66% Calm Calm -- 30.13 in1020.3 mb - 0.00 in0.0 mm 0.00 in0.0 mm
12:20 AM 26.0°F-3.3°C 16.2°F-8.8°C 66% Calm Calm -- 30.12 in1020.0 mb - 0.00 in0.0 mm 0.00 in0.0 mm
12:10 AM 26.1°F-3.3°C 16.3°F-8.7°C 66% Calm Calm -- 30.12 in1020.0 mb - 0.00 in0.0 mm 0.00 in0.0 mm
12:00 AM 26.3°F-3.2°C 16.5°F-8.6°C 66% Calm Calm -- 30.11 in1019.6 mb - 0.00 in0.0 mm 0.00 in0.0 mm